sensor_id;sensor_type;location;lat;lon;timestamp;temperature;humidity
70867;HTU21D;58487;53.474;49.470;2023-04-06T00:02:18;9.86;77.65
70867;HTU21D;58487;53.474;49.470;2023-04-06T00:04:45;9.92;78.25
70867;HTU21D;58487;53.474;49.470;2023-04-06T00:07:11;10.07;76.34
70867;HTU21D;58487;53.474;49.470;2023-04-06T00:09:37;10.14;77.92
70867;HTU21D;58487;53.474;49.470;2023-04-06T00:12:03;10.10;78.76
70867;HTU21D;58487;53.474;49.470;2023-04-06T00:14:29;10.21;80.22
70867;HTU21D;58487;53.474;49.470;2023-04-06T00:16:55;10.07;80.08
70867;HTU21D;58487;53.474;49.470;2023-04-06T00:19:22;9.76;79.35
70867;HTU21D;58487;53.474;49.470;2023-04-06T00:21:48;9.69;79.79
70867;HTU21D;58487;53.474;49.470;2023-04-06T00:24:14;9.69;79.62
70867;HTU21D;58487;53.474;49.470;2023-04-06T00:26:40;9.62;80.49
70867;HTU21D;58487;53.474;49.470;2023-04-06T00:29:06;9.63;79.82
70867;HTU21D;58487;53.474;49.470;2023-04-06T00:31:32;9.64;78.58
70867;HTU21D;58487;53.474;49.470;2023-04-06T00:33:58;9.57;78.86
70867;HTU21D;58487;53.474;49.470;2023-04-06T00:36:25;9.66;80.77
70867;HTU21D;58487;53.474;49.470;2023-04-06T00:38:51;9.68;78.98
70867;HTU21D;58487;53.474;49.470;2023-04-06T00:41:18;9.63;77.79
70867;HTU21D;58487;53.474;49.470;2023-04-06T00:43:44;9.45;79.29
70867;HTU21D;58487;53.474;49.470;2023-04-06T00:46:10;9.42;78.81
70867;HTU21D;58487;53.474;49.470;2023-04-06T00:48:36;9.29;79.75
70867;HTU21D;58487;53.474;49.470;2023-04-06T00:51:02;9.10;80.47
70867;HTU21D;58487;53.474;49.470;2023-04-06T00:53:28;9.05;80.76
70867;HTU21D;58487;53.474;49.470;2023-04-06T00:55:55;8.98;80.97
70867;HTU21D;58487;53.474;49.470;2023-04-06T00:58:21;9.03;81.06
70867;HTU21D;58487;53.474;49.470;2023-04-06T01:00:47;9.02;81.55
70867;HTU21D;58487;53.474;49.470;2023-04-06T01:03:13;8.91;82.48
70867;HTU21D;58487;53.474;49.470;2023-04-06T01:05:39;9.04;81.68
70867;HTU21D;58487;53.474;49.470;2023-04-06T01:08:06;8.93;81.83
70867;HTU21D;58487;53.474;49.470;2023-04-06T01:10:33;9.03;81.16
70867;HTU21D;58487;53.474;49.470;2023-04-06T01:12:59;9.06;81.73
70867;HTU21D;58487;53.474;49.470;2023-04-06T01:15:25;8.81;82.09
70867;HTU21D;58487;53.474;49.470;2023-04-06T01:17:52;8.67;82.70
70867;HTU21D;58487;53.474;49.470;2023-04-06T01:20:18;8.56;83.44
70867;HTU21D;58487;53.474;49.470;2023-04-06T01:22:44;8.52;82.17
70867;HTU21D;58487;53.474;49.470;2023-04-06T01:25:10;8.53;82.71
70867;HTU21D;58487;53.474;49.470;2023-04-06T01:27:36;8.41;81.75
70867;HTU21D;58487;53.474;49.470;2023-04-06T01:30:03;8.16;83.10
70867;HTU21D;58487;53.474;49.470;2023-04-06T01:32:29;7.70;84.47
70867;HTU21D;58487;53.474;49.470;2023-04-06T01:34:56;7.31;85.51
70867;HTU21D;58487;53.474;49.470;2023-04-06T01:37:22;7.19;87.60
70867;HTU21D;58487;53.474;49.470;2023-04-06T01:39:48;7.00;87.83
70867;HTU21D;58487;53.474;49.470;2023-04-06T01:42:14;7.01;88.22
70867;HTU21D;58487;53.474;49.470;2023-04-06T01:44:40;7.16;89.50
70867;HTU21D;58487;53.474;49.470;2023-04-06T01:47:06;7.31;86.54
70867;HTU21D;58487;53.474;49.470;2023-04-06T01:49:31;7.59;88.06
70867;HTU21D;58487;53.474;49.470;2023-04-06T01:51:57;7.79;85.90
70867;HTU21D;58487;53.474;49.470;2023-04-06T01:54:24;7.76;85.02
70867;HTU21D;58487;53.474;49.470;2023-04-06T01:56:50;7.81;85.13
70867;HTU21D;58487;53.474;49.470;2023-04-06T01:59:17;7.75;84.86
70867;HTU21D;58487;53.474;49.470;2023-04-06T02:01:43;7.82;85.19
70867;HTU21D;58487;53.474;49.470;2023-04-06T02:04:08;7.93;84.87
70867;HTU21D;58487;53.474;49.470;2023-04-06T02:06:35;7.97;84.85
70867;HTU21D;58487;53.474;49.470;2023-04-06T02:09:01;8.14;84.57
70867;HTU21D;58487;53.474;49.470;2023-04-06T02:11:27;8.19;84.70
70867;HTU21D;58487;53.474;49.470;2023-04-06T02:13:53;8.18;83.98
70867;HTU21D;58487;53.474;49.470;2023-04-06T02:16:19;8.24;84.11
70867;HTU21D;58487;53.474;49.470;2023-04-06T02:18:45;8.22;83.52
70867;HTU21D;58487;53.474;49.470;2023-04-06T02:21:11;8.29;83.07
70867;HTU21D;58487;53.474;49.470;2023-04-06T02:23:37;8.29;82.69
70867;HTU21D;58487;53.474;49.470;2023-04-06T02:26:03;8.36;82.90
70867;HTU21D;58487;53.474;49.470;2023-04-06T02:28:29;8.42;81.36
70867;HTU21D;58487;53.474;49.470;2023-04-06T02:30:55;8.44;82.71
70867;HTU21D;58487;53.474;49.470;2023-04-06T02:33:21;8.41;81.24
70867;HTU21D;58487;53.474;49.470;2023-04-06T02:35:47;8.36;83.95
70867;HTU21D;58487;53.474;49.470;2023-04-06T02:38:13;8.32;81.83
70867;HTU21D;58487;53.474;49.470;2023-04-06T02:40:39;8.33;80.57
70867;HTU21D;58487;53.474;49.470;2023-04-06T02:43:05;8.30;81.61
70867;HTU21D;58487;53.474;49.470;2023-04-06T02:45:31;8.31;81.49
70867;HTU21D;58487;53.474;49.470;2023-04-06T02:47:57;8.37;81.16
70867;HTU21D;58487;53.474;49.470;2023-04-06T02:50:23;8.26;79.99
70867;HTU21D;58487;53.474;49.470;2023-04-06T02:52:49;8.26;82.28
70867;HTU21D;58487;53.474;49.470;2023-04-06T02:55:15;8.19;82.94
70867;HTU21D;58487;53.474;49.470;2023-04-06T02:57:41;8.24;81.94
70867;HTU21D;58487;53.474;49.470;2023-04-06T03:00:08;8.17;82.21
70867;HTU21D;58487;53.474;49.470;2023-04-06T03:02:37;8.14;83.22
70867;HTU21D;58487;53.474;49.470;2023-04-06T03:05:04;8.14;82.95
70867;HTU21D;58487;53.474;49.470;2023-04-06T03:07:30;8.45;82.07
70867;HTU21D;58487;53.474;49.470;2023-04-06T03:09:56;8.60;81.79
70867;HTU21D;58487;53.474;49.470;2023-04-06T03:12:22;8.31;82.26
70867;HTU21D;58487;53.474;49.470;2023-04-06T03:14:48;8.17;82.91
70867;HTU21D;58487;53.474;49.470;2023-04-06T03:17:14;8.14;83.39
70867;HTU21D;58487;53.474;49.470;2023-04-06T03:19:40;8.19;81.10
70867;HTU21D;58487;53.474;49.470;2023-04-06T03:22:06;7.82;83.97
70867;HTU21D;58487;53.474;49.470;2023-04-06T03:24:32;7.92;85.34
70867;HTU21D;58487;53.474;49.470;2023-04-06T03:26:58;8.00;83.70
70867;HTU21D;58487;53.474;49.470;2023-04-06T03:29:24;8.26;82.33
70867;HTU21D;58487;53.474;49.470;2023-04-06T03:31:50;8.02;82.46
70867;HTU21D;58487;53.474;49.470;2023-04-06T03:34:16;7.97;84.07
70867;HTU21D;58487;53.474;49.470;2023-04-06T03:36:42;8.34;82.49
70867;HTU21D;58487;53.474;49.470;2023-04-06T03:39:08;8.49;80.33
70867;HTU21D;58487;53.474;49.470;2023-04-06T03:41:34;8.59;80.04
70867;HTU21D;58487;53.474;49.470;2023-04-06T03:44:00;8.78;79.87
70867;HTU21D;58487;53.474;49.470;2023-04-06T03:46:27;8.83;79.92
70867;HTU21D;58487;53.474;49.470;2023-04-06T03:48:53;8.83;79.97
70867;HTU21D;58487;53.474;49.470;2023-04-06T03:51:19;8.86;79.57
70867;HTU21D;58487;53.474;49.470;2023-04-06T03:53:45;8.79;79.37
70867;HTU21D;58487;53.474;49.470;2023-04-06T03:56:11;8.78;80.07
70867;HTU21D;58487;53.474;49.470;2023-04-06T03:58:37;8.76;80.51
70867;HTU21D;58487;53.474;49.470;2023-04-06T04:01:03;8.86;80.96
70867;HTU21D;58487;53.474;49.470;2023-04-06T04:03:29;8.92;80.17
70867;HTU21D;58487;53.474;49.470;2023-04-06T04:05:55;8.95;80.42
70867;HTU21D;58487;53.474;49.470;2023-04-06T04:08:24;8.95;80.77
70867;HTU21D;58487;53.474;49.470;2023-04-06T04:10:50;8.83;80.00
70867;HTU21D;58487;53.474;49.470;2023-04-06T04:13:16;8.89;80.14
70867;HTU21D;58487;53.474;49.470;2023-04-06T04:15:42;8.39;82.52
70867;HTU21D;58487;53.474;49.470;2023-04-06T04:18:08;8.27;82.85
70867;HTU21D;58487;53.474;49.470;2023-04-06T04:20:34;8.51;82.90
70867;HTU21D;58487;53.474;49.470;2023-04-06T04:23:01;8.56;82.74
70867;HTU21D;58487;53.474;49.470;2023-04-06T04:25:27;8.62;82.97
70867;HTU21D;58487;53.474;49.470;2023-04-06T04:27:53;8.72;81.55
70867;HTU21D;58487;53.474;49.470;2023-04-06T04:30:19;8.79;82.33
70867;HTU21D;58487;53.474;49.470;2023-04-06T04:32:45;8.86;81.00
70867;HTU21D;58487;53.474;49.470;2023-04-06T04:35:11;8.82;80.15
70867;HTU21D;58487;53.474;49.470;2023-04-06T04:37:40;8.80;80.33
70867;HTU21D;58487;53.474;49.470;2023-04-06T04:40:06;8.95;78.88
70867;HTU21D;58487;53.474;49.470;2023-04-06T04:42:33;8.94;78.82
70867;HTU21D;58487;53.474;49.470;2023-04-06T04:45:00;8.68;79.72
70867;HTU21D;58487;53.474;49.470;2023-04-06T04:47:26;8.27;81.42
70867;HTU21D;58487;53.474;49.470;2023-04-06T04:49:52;7.92;82.73
70867;HTU21D;58487;53.474;49.470;2023-04-06T04:52:18;7.94;84.34
70867;HTU21D;58487;53.474;49.470;2023-04-06T04:54:44;8.19;81.84
70867;HTU21D;58487;53.474;49.470;2023-04-06T04:57:12;8.29;84.26
70867;HTU21D;58487;53.474;49.470;2023-04-06T04:59:38;8.53;81.94
70867;HTU21D;58487;53.474;49.470;2023-04-06T05:02:04;8.76;81.35
70867;HTU21D;58487;53.474;49.470;2023-04-06T05:04:30;8.98;79.49
70867;HTU21D;58487;53.474;49.470;2023-04-06T05:07:04;9.18;82.07
70867;HTU21D;58487;53.474;49.470;2023-04-06T05:09:30;9.26;81.81
70867;HTU21D;58487;53.474;49.470;2023-04-06T05:11:58;9.42;81.19
70867;HTU21D;58487;53.474;49.470;2023-04-06T05:14:24;9.35;80.81
70867;HTU21D;58487;53.474;49.470;2023-04-06T05:16:51;9.35;80.79
70867;HTU21D;58487;53.474;49.470;2023-04-06T05:19:17;9.40;79.72
70867;HTU21D;58487;53.474;49.470;2023-04-06T05:21:43;9.37;79.93
70867;HTU21D;58487;53.474;49.470;2023-04-06T05:24:09;9.38;79.37
70867;HTU21D;58487;53.474;49.470;2023-04-06T05:26:35;9.35;78.72
70867;HTU21D;58487;53.474;49.470;2023-04-06T05:29:01;9.44;77.36
70867;HTU21D;58487;53.474;49.470;2023-04-06T05:31:27;9.50;77.71
70867;HTU21D;58487;53.474;49.470;2023-04-06T05:33:53;9.61;78.19
70867;HTU21D;58487;53.474;49.470;2023-04-06T05:36:19;9.62;78.51
70867;HTU21D;58487;53.474;49.470;2023-04-06T05:38:45;9.50;77.52
70867;HTU21D;58487;53.474;49.470;2023-04-06T05:41:12;9.44;77.87
70867;HTU21D;58487;53.474;49.470;2023-04-06T05:43:38;9.51;76.73
70867;HTU21D;58487;53.474;49.470;2023-04-06T05:46:04;9.38;77.30
70867;HTU21D;58487;53.474;49.470;2023-04-06T05:48:30;9.49;77.43
70867;HTU21D;58487;53.474;49.470;2023-04-06T05:50:56;9.61;77.15
70867;HTU21D;58487;53.474;49.470;2023-04-06T05:53:22;9.80;76.07
70867;HTU21D;58487;53.474;49.470;2023-04-06T05:55:48;9.77;75.70
70867;HTU21D;58487;53.474;49.470;2023-04-06T05:58:14;9.77;76.13
70867;HTU21D;58487;53.474;49.470;2023-04-06T06:00:40;9.84;76.57
70867;HTU21D;58487;53.474;49.470;2023-04-06T06:03:08;9.95;76.77
70867;HTU21D;58487;53.474;49.470;2023-04-06T06:05:34;9.90;76.10
70867;HTU21D;58487;53.474;49.470;2023-04-06T06:08:00;9.95;76.05
70867;HTU21D;58487;53.474;49.470;2023-04-06T06:10:27;10.08;76.93
70867;HTU21D;58487;53.474;49.470;2023-04-06T06:12:53;10.06;78.12
70867;HTU21D;58487;53.474;49.470;2023-04-06T06:15:19;9.98;76.63
70867;HTU21D;58487;53.474;49.470;2023-04-06T06:17:46;9.99;76.03
70867;HTU21D;58487;53.474;49.470;2023-04-06T06:20:12;10.08;76.50
70867;HTU21D;58487;53.474;49.470;2023-04-06T06:22:38;10.15;75.97
70867;HTU21D;58487;53.474;49.470;2023-04-06T06:25:06;10.21;76.01
70867;HTU21D;58487;53.474;49.470;2023-04-06T06:27:32;10.26;75.24
70867;HTU21D;58487;53.474;49.470;2023-04-06T06:29:58;10.27;75.50
70867;HTU21D;58487;53.474;49.470;2023-04-06T06:32:24;10.21;75.81
70867;HTU21D;58487;53.474;49.470;2023-04-06T06:34:50;10.30;75.98
70867;HTU21D;58487;53.474;49.470;2023-04-06T06:37:16;10.41;76.01
70867;HTU21D;58487;53.474;49.470;2023-04-06T06:39:42;10.46;75.76
70867;HTU21D;58487;53.474;49.470;2023-04-06T06:42:08;10.31;76.09
70867;HTU21D;58487;53.474;49.470;2023-04-06T06:44:34;10.29;74.54
70867;HTU21D;58487;53.474;49.470;2023-04-06T06:47:00;10.51;76.77
70867;HTU21D;58487;53.474;49.470;2023-04-06T06:49:26;10.63;74.63
70867;HTU21D;58487;53.474;49.470;2023-04-06T06:51:53;10.66;75.62
70867;HTU21D;58487;53.474;49.470;2023-04-06T06:54:19;10.66;76.19
70867;HTU21D;58487;53.474;49.470;2023-04-06T06:56:45;10.56;74.26
70867;HTU21D;58487;53.474;49.470;2023-04-06T06:59:11;10.60;75.21
70867;HTU21D;58487;53.474;49.470;2023-04-06T07:01:37;10.44;75.68
70867;HTU21D;58487;53.474;49.470;2023-04-06T07:04:04;10.55;75.34
70867;HTU21D;58487;53.474;49.470;2023-04-06T07:06:30;10.63;75.70
70867;HTU21D;58487;53.474;49.470;2023-04-06T07:08:56;10.59;75.89
70867;HTU21D;58487;53.474;49.470;2023-04-06T07:11:22;10.43;74.83
70867;HTU21D;58487;53.474;49.470;2023-04-06T07:13:48;10.28;75.19
70867;HTU21D;58487;53.474;49.470;2023-04-06T07:16:14;11.62;70.32
70867;HTU21D;58487;53.474;49.470;2023-04-06T07:18:41;12.84;68.39
70867;HTU21D;58487;53.474;49.470;2023-04-06T07:21:07;12.18;70.57
70867;HTU21D;58487;53.474;49.470;2023-04-06T07:23:33;11.68;70.93
70867;HTU21D;58487;53.474;49.470;2023-04-06T07:25:59;12.97;67.72
70867;HTU21D;58487;53.474;49.470;2023-04-06T07:28:25;13.68;65.53
70867;HTU21D;58487;53.474;49.470;2023-04-06T07:30:51;14.08;64.62
70867;HTU21D;58487;53.474;49.470;2023-04-06T07:33:18;14.27;63.69
70867;HTU21D;58487;53.474;49.470;2023-04-06T07:35:44;14.53;63.27
70867;HTU21D;58487;53.474;49.470;2023-04-06T07:38:11;13.79;65.56
70867;HTU21D;58487;53.474;49.470;2023-04-06T07:40:37;13.09;68.51
70867;HTU21D;58487;53.474;49.470;2023-04-06T07:43:03;12.75;69.62
70867;HTU21D;58487;53.474;49.470;2023-04-06T07:45:29;12.66;70.94
70867;HTU21D;58487;53.474;49.470;2023-04-06T07:47:55;13.56;69.15
70867;HTU21D;58487;53.474;49.470;2023-04-06T07:50:22;14.25;68.03
70867;HTU21D;58487;53.474;49.470;2023-04-06T07:52:48;14.63;65.94
70867;HTU21D;58487;53.474;49.470;2023-04-06T07:55:14;14.95;65.58
70867;HTU21D;58487;53.474;49.470;2023-04-06T07:57:40;15.07;65.86
70867;HTU21D;58487;53.474;49.470;2023-04-06T08:00:06;15.11;65.72
70867;HTU21D;58487;53.474;49.470;2023-04-06T08:02:34;15.21;65.34
70867;HTU21D;58487;53.474;49.470;2023-04-06T08:05:00;15.26;65.51
70867;HTU21D;58487;53.474;49.470;2023-04-06T08:07:26;15.34;65.08
70867;HTU21D;58487;53.474;49.470;2023-04-06T08:09:52;15.40;64.08
70867;HTU21D;58487;53.474;49.470;2023-04-06T08:12:18;15.36;64.79
70867;HTU21D;58487;53.474;49.470;2023-04-06T08:14:44;15.47;63.59
70867;HTU21D;58487;53.474;49.470;2023-04-06T08:17:11;15.58;62.00
70867;HTU21D;58487;53.474;49.470;2023-04-06T08:19:37;15.72;61.50
70867;HTU21D;58487;53.474;49.470;2023-04-06T08:22:03;15.60;59.60
70867;HTU21D;58487;53.474;49.470;2023-04-06T08:24:29;15.74;60.53
70867;HTU21D;58487;53.474;49.470;2023-04-06T08:26:58;15.99;60.18
70867;HTU21D;58487;53.474;49.470;2023-04-06T08:29:24;16.00;59.67
70867;HTU21D;58487;53.474;49.470;2023-04-06T08:31:50;16.24;58.82
70867;HTU21D;58487;53.474;49.470;2023-04-06T08:34:16;16.26;59.97
70867;HTU21D;58487;53.474;49.470;2023-04-06T08:36:42;16.37;58.78
70867;HTU21D;58487;53.474;49.470;2023-04-06T08:39:08;16.02;58.64
70867;HTU21D;58487;53.474;49.470;2023-04-06T08:41:34;16.03;58.91
70867;HTU21D;58487;53.474;49.470;2023-04-06T08:44:01;16.22;59.53
70867;HTU21D;58487;53.474;49.470;2023-04-06T08:46:31;16.21;57.96
70867;HTU21D;58487;53.474;49.470;2023-04-06T08:49:00;16.39;57.48
70867;HTU21D;58487;53.474;49.470;2023-04-06T08:51:27;16.37;56.07
70867;HTU21D;58487;53.474;49.470;2023-04-06T08:53:55;16.49;55.45
70867;HTU21D;58487;53.474;49.470;2023-04-06T08:56:22;16.32;55.55
70867;HTU21D;58487;53.474;49.470;2023-04-06T08:58:49;16.36;56.20
70867;HTU21D;58487;53.474;49.470;2023-04-06T09:01:18;16.58;55.05
70867;HTU21D;58487;53.474;49.470;2023-04-06T09:03:46;16.82;54.84
70867;HTU21D;58487;53.474;49.470;2023-04-06T09:06:14;16.92;55.38
70867;HTU21D;58487;53.474;49.470;2023-04-06T09:08:41;16.79;57.17
70867;HTU21D;58487;53.474;49.470;2023-04-06T09:11:08;16.90;56.48
70867;HTU21D;58487;53.474;49.470;2023-04-06T09:13:48;17.13;55.00
70867;HTU21D;58487;53.474;49.470;2023-04-06T09:16:15;17.17;54.68
70867;HTU21D;58487;53.474;49.470;2023-04-06T09:18:41;17.22;55.94
70867;HTU21D;58487;53.474;49.470;2023-04-06T09:21:09;16.82;59.35
70867;HTU21D;58487;53.474;49.470;2023-04-06T09:23:35;16.84;58.80
70867;HTU21D;58487;53.474;49.470;2023-04-06T09:29:04;17.49;55.23
70867;HTU21D;58487;53.474;49.470;2023-04-06T09:31:31;17.35;57.30
70867;HTU21D;58487;53.474;49.470;2023-04-06T09:34:01;17.83;57.87
70867;HTU21D;58487;53.474;49.470;2023-04-06T09:36:35;17.68;57.62
70867;HTU21D;58487;53.474;49.470;2023-04-06T09:39:04;17.46;58.52
70867;HTU21D;58487;53.474;49.470;2023-04-06T09:41:32;17.56;58.80
70867;HTU21D;58487;53.474;49.470;2023-04-06T09:44:07;17.50;57.80
70867;HTU21D;58487;53.474;49.470;2023-04-06T09:46:43;17.24;58.84
70867;HTU21D;58487;53.474;49.470;2023-04-06T09:49:11;17.10;57.13
70867;HTU21D;58487;53.474;49.470;2023-04-06T09:51:44;17.31;55.67
70867;HTU21D;58487;53.474;49.470;2023-04-06T09:54:16;17.66;55.42
70867;HTU21D;58487;53.474;49.470;2023-04-06T09:56:51;18.06;56.54
70867;HTU21D;58487;53.474;49.470;2023-04-06T09:59:24;18.34;56.56
70867;HTU21D;58487;53.474;49.470;2023-04-06T10:01:52;18.40;54.62
70867;HTU21D;58487;53.474;49.470;2023-04-06T10:04:30;18.20;53.56
70867;HTU21D;58487;53.474;49.470;2023-04-06T10:06:59;18.96;53.88
70867;HTU21D;58487;53.474;49.470;2023-04-06T10:09:28;19.26;54.06
70867;HTU21D;58487;53.474;49.470;2023-04-06T10:12:05;19.35;55.33
70867;HTU21D;58487;53.474;49.470;2023-04-06T10:14:35;19.09;55.10
70867;HTU21D;58487;53.474;49.470;2023-04-06T10:17:04;19.08;54.55
70867;HTU21D;58487;53.474;49.470;2023-04-06T10:19:52;19.37;52.68
70867;HTU21D;58487;53.474;49.470;2023-04-06T10:22:49;19.60;53.92
70867;HTU21D;58487;53.474;49.470;2023-04-06T10:25:27;19.48;54.45
70867;HTU21D;58487;53.474;49.470;2023-04-06T10:28:20;19.54;51.25
70867;HTU21D;58487;53.474;49.470;2023-04-06T10:30:46;19.77;52.61
70867;HTU21D;58487;53.474;49.470;2023-04-06T10:33:18;20.12;51.64
70867;HTU21D;58487;53.474;49.470;2023-04-06T10:35:46;19.50;52.61
70867;HTU21D;58487;53.474;49.470;2023-04-06T10:38:12;19.32;52.42
70867;HTU21D;58487;53.474;49.470;2023-04-06T10:40:46;19.80;52.21
70867;HTU21D;58487;53.474;49.470;2023-04-06T10:43:20;19.43;53.20
70867;HTU21D;58487;53.474;49.470;2023-04-06T10:45:55;18.61;53.80
70867;HTU21D;58487;53.474;49.470;2023-04-06T10:48:22;18.46;53.82
70867;HTU21D;58487;53.474;49.470;2023-04-06T10:50:51;18.22;54.62
70867;HTU21D;58487;53.474;49.470;2023-04-06T10:53:26;17.96;53.41
70867;HTU21D;58487;53.474;49.470;2023-04-06T10:55:55;17.83;54.59
70867;HTU21D;58487;53.474;49.470;2023-04-06T10:58:28;17.74;55.63
70867;HTU21D;58487;53.474;49.470;2023-04-06T11:00:54;17.75;55.26
70867;HTU21D;58487;53.474;49.470;2023-04-06T11:03:21;17.59;55.61
70867;HTU21D;58487;53.474;49.470;2023-04-06T11:05:50;18.03;55.08
70867;HTU21D;58487;53.474;49.470;2023-04-06T11:08:31;18.80;53.06
70867;HTU21D;58487;53.474;49.470;2023-04-06T11:11:11;18.54;53.23
70867;HTU21D;58487;53.474;49.470;2023-04-06T11:13:51;18.14;54.73
70867;HTU21D;58487;53.474;49.470;2023-04-06T11:18:56;17.59;55.13
70867;HTU21D;58487;53.474;49.470;2023-04-06T11:21:40;17.44;54.91
70867;HTU21D;58487;53.474;49.470;2023-04-06T11:24:12;17.29;56.10
70867;HTU21D;58487;53.474;49.470;2023-04-06T11:29:15;17.28;56.77
70867;HTU21D;58487;53.474;49.470;2023-04-06T11:32:00;18.09;55.00
70867;HTU21D;58487;53.474;49.470;2023-04-06T11:34:28;19.03;53.00
70867;HTU21D;58487;53.474;49.470;2023-04-06T11:37:00;19.33;53.61
70867;HTU21D;58487;53.474;49.470;2023-04-06T11:39:28;19.56;52.80
70867;HTU21D;58487;53.474;49.470;2023-04-06T11:41:59;19.24;52.80
70867;HTU21D;58487;53.474;49.470;2023-04-06T11:46:57;18.71;53.47
70867;HTU21D;58487;53.474;49.470;2023-04-06T11:49:31;19.02;52.44
70867;HTU21D;58487;53.474;49.470;2023-04-06T11:51:58;19.60;52.60
70867;HTU21D;58487;53.474;49.470;2023-04-06T11:54:36;20.09;51.82
70867;HTU21D;58487;53.474;49.470;2023-04-06T11:57:04;20.27;51.17
70867;HTU21D;58487;53.474;49.470;2023-04-06T11:59:32;20.53;50.47
70867;HTU21D;58487;53.474;49.470;2023-04-06T12:01:58;20.20;50.37
70867;HTU21D;58487;53.474;49.470;2023-04-06T12:04:24;20.48;50.63
70867;HTU21D;58487;53.474;49.470;2023-04-06T12:06:54;20.85;49.75
70867;HTU21D;58487;53.474;49.470;2023-04-06T12:09:20;20.54;51.24
70867;HTU21D;58487;53.474;49.470;2023-04-06T12:11:47;20.65;49.98
70867;HTU21D;58487;53.474;49.470;2023-04-06T12:14:13;20.10;51.40
70867;HTU21D;58487;53.474;49.470;2023-04-06T12:16:40;19.75;52.17
70867;HTU21D;58487;53.474;49.470;2023-04-06T12:19:06;19.24;51.67
70867;HTU21D;58487;53.474;49.470;2023-04-06T12:21:34;19.10;52.52
70867;HTU21D;58487;53.474;49.470;2023-04-06T12:24:02;18.54;52.75
70867;HTU21D;58487;53.474;49.470;2023-04-06T12:26:29;18.26;53.43
70867;HTU21D;58487;53.474;49.470;2023-04-06T12:28:55;18.12;53.63
70867;HTU21D;58487;53.474;49.470;2023-04-06T12:31:22;18.04;55.18
70867;HTU21D;58487;53.474;49.470;2023-04-06T12:33:49;18.12;55.29
70867;HTU21D;58487;53.474;49.470;2023-04-06T12:36:18;17.94;53.85
70867;HTU21D;58487;53.474;49.470;2023-04-06T12:38:48;17.91;55.02
70867;HTU21D;58487;53.474;49.470;2023-04-06T12:41:14;18.03;54.49
70867;HTU21D;58487;53.474;49.470;2023-04-06T12:43:42;17.98;54.87
70867;HTU21D;58487;53.474;49.470;2023-04-06T12:46:09;17.88;54.62
70867;HTU21D;58487;53.474;49.470;2023-04-06T12:48:36;17.96;54.37
70867;HTU21D;58487;53.474;49.470;2023-04-06T12:51:04;18.07;53.71
70867;HTU21D;58487;53.474;49.470;2023-04-06T12:53:32;18.19;54.50
70867;HTU21D;58487;53.474;49.470;2023-04-06T12:55:59;18.18;53.68
70867;HTU21D;58487;53.474;49.470;2023-04-06T12:58:26;18.41;53.51
70867;HTU21D;58487;53.474;49.470;2023-04-06T13:00:54;18.42;54.30
70867;HTU21D;58487;53.474;49.470;2023-04-06T13:03:22;18.77;52.43
70867;HTU21D;58487;53.474;49.470;2023-04-06T13:05:52;19.12;53.08
70867;HTU21D;58487;53.474;49.470;2023-04-06T13:08:19;19.02;52.62
70867;HTU21D;58487;53.474;49.470;2023-04-06T13:10:51;18.69;53.20
70867;HTU21D;58487;53.474;49.470;2023-04-06T13:13:25;18.14;55.00
70867;HTU21D;58487;53.474;49.470;2023-04-06T13:15:59;17.92;54.60
70867;HTU21D;58487;53.474;49.470;2023-04-06T13:18:25;17.56;56.36
70867;HTU21D;58487;53.474;49.470;2023-04-06T13:20:52;17.31;57.10
70867;HTU21D;58487;53.474;49.470;2023-04-06T13:23:18;17.24;57.38
70867;HTU21D;58487;53.474;49.470;2023-04-06T13:25:44;16.99;56.85
70867;HTU21D;58487;53.474;49.470;2023-04-06T13:28:11;16.92;58.25
70867;HTU21D;58487;53.474;49.470;2023-04-06T13:30:37;17.02;56.42
70867;HTU21D;58487;53.474;49.470;2023-04-06T13:33:03;16.96;57.32
70867;HTU21D;58487;53.474;49.470;2023-04-06T13:35:30;17.06;56.68
70867;HTU21D;58487;53.474;49.470;2023-04-06T13:37:57;17.00;56.87
70867;HTU21D;58487;53.474;49.470;2023-04-06T13:40:24;17.05;56.57
70867;HTU21D;58487;53.474;49.470;2023-04-06T13:42:50;17.01;56.62
70867;HTU21D;58487;53.474;49.470;2023-04-06T13:45:17;17.14;57.00
70867;HTU21D;58487;53.474;49.470;2023-04-06T13:47:43;17.04;56.68
70867;HTU21D;58487;53.474;49.470;2023-04-06T13:50:10;16.96;57.80
70867;HTU21D;58487;53.474;49.470;2023-04-06T13:52:36;16.99;58.21
70867;HTU21D;58487;53.474;49.470;2023-04-06T13:55:02;16.92;57.78
70867;HTU21D;58487;53.474;49.470;2023-04-06T13:57:29;16.99;56.96
70867;HTU21D;58487;53.474;49.470;2023-04-06T13:59:55;17.13;56.98
70867;HTU21D;58487;53.474;49.470;2023-04-06T14:02:22;17.88;56.23
70867;HTU21D;58487;53.474;49.470;2023-04-06T14:04:53;18.43;54.59
70867;HTU21D;58487;53.474;49.470;2023-04-06T14:07:20;18.68;54.51
70867;HTU21D;58487;53.474;49.470;2023-04-06T14:09:46;18.93;53.55
70867;HTU21D;58487;53.474;49.470;2023-04-06T14:12:13;18.85;54.75
70867;HTU21D;58487;53.474;49.470;2023-04-06T14:14:39;18.82;54.60
70867;HTU21D;58487;53.474;49.470;2023-04-06T14:17:05;18.76;54.35
70867;HTU21D;58487;53.474;49.470;2023-04-06T14:19:31;18.74;53.75
70867;HTU21D;58487;53.474;49.470;2023-04-06T14:21:57;18.34;55.18
70867;HTU21D;58487;53.474;49.470;2023-04-06T14:24:25;18.61;54.07
70867;HTU21D;58487;53.474;49.470;2023-04-06T14:26:52;18.56;55.58
70867;HTU21D;58487;53.474;49.470;2023-04-06T14:29:18;18.56;54.15
70867;HTU21D;58487;53.474;49.470;2023-04-06T14:31:46;18.32;55.01
70867;HTU21D;58487;53.474;49.470;2023-04-06T14:34:13;18.55;53.90
70867;HTU21D;58487;53.474;49.470;2023-04-06T14:36:39;18.65;52.59
70867;HTU21D;58487;53.474;49.470;2023-04-06T14:39:07;18.32;53.52
70867;HTU21D;58487;53.474;49.470;2023-04-06T14:41:33;18.43;53.84
70867;HTU21D;58487;53.474;49.470;2023-04-06T14:44:00;17.91;54.88
70867;HTU21D;58487;53.474;49.470;2023-04-06T14:46:27;17.45;55.02
70867;HTU21D;58487;53.474;49.470;2023-04-06T14:48:55;17.09;55.38
70867;HTU21D;58487;53.474;49.470;2023-04-06T14:51:25;17.02;55.76
70867;HTU21D;58487;53.474;49.470;2023-04-06T14:53:54;16.93;56.61
70867;HTU21D;58487;53.474;49.470;2023-04-06T14:56:21;16.86;57.25
70867;HTU21D;58487;53.474;49.470;2023-04-06T14:58:49;16.88;57.35
70867;HTU21D;58487;53.474;49.470;2023-04-06T15:01:18;16.64;57.82
70867;HTU21D;58487;53.474;49.470;2023-04-06T15:03:45;16.64;57.67
70867;HTU21D;58487;53.474;49.470;2023-04-06T15:06:14;16.28;59.14
70867;HTU21D;58487;53.474;49.470;2023-04-06T15:08:43;16.04;59.34
70867;HTU21D;58487;53.474;49.470;2023-04-06T15:11:11;15.74;59.96
70867;HTU21D;58487;53.474;49.470;2023-04-06T15:13:38;15.67;60.16
70867;HTU21D;58487;53.474;49.470;2023-04-06T15:16:06;15.49;61.25
70867;HTU21D;58487;53.474;49.470;2023-04-06T15:18:33;15.33;60.94
70867;HTU21D;58487;53.474;49.470;2023-04-06T15:21:00;15.19;62.02